Time;durP1;ratioP1;P1;durP2;ratioP2;P2;SDS_P1;SDS_P2;PMS_P1;PMS_P2;Temp;Humidity;BMP_temperature;BMP_pressure;BME280_temperature;BME280_humidity;BME280_pressure;Samples;Min_cycle;Max_cycle;Signal;HPM_P1;HPM_P2
2022/08/08 00:00:33;;;;;;;6.15;3.28;;;17.00;99.90;;;;;;5011112;28;20065;-62
2022/08/08 00:03:18;;;;;;;5.70;3.13;;;16.90;99.90;;;;;;5010952;28;20050;-61
2022/08/08 00:06:06;;;;;;;7.78;3.80;;;16.90;99.90;;;;;;5012641;28;20054;-60
2022/08/08 00:08:47;;;;;;;7.43;3.53;;;16.90;99.90;;;;;;5011174;28;20125;-60
2022/08/08 00:11:19;;;;;;;10.52;3.65;;;16.80;99.90;;;;;;5012596;28;20054;-61
2022/08/08 00:14:24;;;;;;;6.32;3.33;;;16.80;99.90;;;;;;5011995;28;20622;-60
2022/08/08 00:16:53;;;;;;;;;;;16.80;99.90;;;;;;5010673;28;20416;-60
2022/08/08 00:19:28;;;;;;;11.88;3.83;;;16.80;99.90;;;;;;5012427;28;20020;-60
2022/08/08 00:22:01;;;;;;;9.48;3.80;;;16.80;99.90;;;;;;5012354;28;20164;-60
2022/08/08 00:24:44;;;;;;;5.63;3.58;;;16.70;99.90;;;;;;5011987;28;20081;-60
2022/08/08 00:27:12;;;;;;;8.40;4.03;;;16.70;99.90;;;;;;5012338;28;20115;-60
2022/08/08 00:29:50;;;;;;;8.30;3.90;;;16.70;99.90;;;;;;5011962;28;20125;-61
2022/08/08 00:32:22;;;;;;;7.07;3.80;;;16.70;99.90;;;;;;5011905;28;20139;-60
2022/08/08 00:35:10;;;;;;;8.07;3.45;;;16.70;99.90;;;;;;5012030;28;20054;-60
2022/08/08 00:38:00;;;;;;;9.77;3.80;;;16.70;99.90;;;;;;5011835;28;20045;-60
2022/08/08 00:40:28;;;;;;;6.35;3.90;;;16.70;99.90;;;;;;5011694;28;20111;-63
2022/08/08 00:43:15;;;;;;;7.20;3.60;;;16.70;99.90;;;;;;5010804;28;20085;-60
2022/08/08 00:45:46;;;;;;;8.25;3.97;;;16.60;99.90;;;;;;5011721;28;20129;-61
2022/08/08 00:48:30;;;;;;;11.02;3.95;;;16.60;99.90;;;;;;5011097;28;20061;-60
2022/08/08 00:51:11;;;;;;;12.07;3.90;;;16.60;99.90;;;;;;5012055;28;20428;-60
2022/08/08 00:53:55;;;;;;;9.90;4.20;;;16.60;99.90;;;;;;5011599;28;20449;-59
2022/08/08 00:57:00;;;;;;;6.78;3.50;;;16.60;99.90;;;;;;5010910;28;20046;-60
2022/08/08 00:59:56;;;;;;;6.18;3.47;;;16.60;99.90;;;;;;5011682;28;20436;-60
2022/08/08 01:02:53;;;;;;;7.03;3.63;;;16.60;99.90;;;;;;5010922;28;20085;-60
2022/08/08 01:05:48;;;;;;;5.93;3.25;;;16.60;99.90;;;;;;5011954;28;20135;-60
2022/08/08 01:08:51;;;;;;;7.25;3.80;;;16.60;99.90;;;;;;5011804;28;20085;-60
2022/08/08 01:11:43;;;;;;;6.00;3.20;;;16.50;99.90;;;;;;5012034;28;20129;-60
2022/08/08 01:14:26;;;;;;;11.73;3.67;;;16.50;99.90;;;;;;5011747;28;20050;-60
2022/08/08 01:17:16;;;;;;;9.98;3.75;;;16.50;99.90;;;;;;5011498;28;20424;-61
2022/08/08 01:20:01;;;;;;;6.78;3.45;;;16.50;99.90;;;;;;5011401;28;20129;-60
2022/08/08 01:23:10;;;;;;;6.63;3.78;;;16.50;99.90;;;;;;5010677;28;20060;-61
2022/08/08 01:26:14;;;;;;;6.75;3.60;;;16.40;99.90;;;;;;5008741;28;20073;-61
2022/08/08 01:29:04;;;;;;;7.93;3.72;;;16.40;99.90;;;;;;5011349;28;20108;-61
2022/08/08 01:32:19;;;;;;;9.38;3.72;;;16.40;99.90;;;;;;5010425;28;20500;-61
2022/08/08 01:34:54;;;;;;;9.30;3.55;;;16.30;99.90;;;;;;5009374;28;20058;-61
2022/08/08 01:37:57;;;;;;;10.40;4.07;;;16.30;99.90;;;;;;5010468;28;20082;-60
2022/08/08 01:41:06;;;;;;;7.68;3.35;;;16.20;99.90;;;;;;5011238;28;20042;-61
2022/08/08 01:43:54;;;;;;;6.60;3.65;;;16.20;99.90;;;;;;5011531;28;20117;-61
2022/08/08 01:46:49;;;;;;;6.80;3.40;;;16.20;99.90;;;;;;5011348;28;20057;-61
2022/08/08 01:49:27;;;;;;;;;;;16.20;99.90;;;;;;5010899;28;20468;-62
2022/08/08 01:52:12;;;;;;;7.40;3.70;;;16.10;99.90;;;;;;5011137;28;20349;-60
2022/08/08 01:54:56;;;;;;;8.20;4.13;;;16.10;99.90;;;;;;5011151;28;20131;-61
2022/08/08 01:57:47;;;;;;;7.72;4.03;;;16.10;99.90;;;;;;5011350;28;20049;-61
2022/08/08 02:00:26;;;;;;;7.15;4.10;;;16.00;99.90;;;;;;5010077;28;20050;-61
2022/08/08 02:03:26;;;;;;;7.70;4.03;;;16.10;99.90;;;;;;5011042;28;20415;-61
2022/08/08 02:06:15;;;;;;;8.77;4.10;;;16.10;99.90;;;;;;5008568;28;20412;-61
2022/08/08 02:08:58;;;;;;;8.50;3.97;;;16.00;99.90;;;;;;5011029;28;20465;-61
2022/08/08 02:11:32;;;;;;;6.80;4.00;;;16.00;99.90;;;;;;5014511;28;20057;-60
2022/08/08 02:14:17;;;;;;;;;;;16.00;99.90;;;;;;5014859;28;20050;-62
2022/08/08 02:16:52;;;;;;;11.00;4.43;;;16.00;99.90;;;;;;5013313;28;19921;-61
2022/08/08 02:19:25;;;;;;;7.55;3.95;;;16.00;99.90;;;;;;5013809;28;20050;-60
2022/08/08 02:22:30;;;;;;;6.82;4.15;;;16.00;99.90;;;;;;5014196;28;20104;-60
2022/08/08 02:25:36;;;;;;;9.27;4.40;;;16.00;99.90;;;;;;5014112;28;20046;-61
2022/08/08 02:28:11;;;;;;;8.25;4.07;;;16.10;99.90;;;;;;5014003;28;20089;-61
2022/08/08 02:30:55;;;;;;;8.07;4.30;;;16.10;99.90;;;;;;5046359;28;20053;-61
2022/08/08 02:33:40;;;;;;;10.80;4.85;;;16.10;99.90;;;;;;5013361;28;20498;-60
2022/08/08 02:36:30;;;;;;;9.82;4.07;;;16.10;99.90;;;;;;5029365;28;20050;-61
2022/08/08 02:38:59;;;;;;;9.40;4.30;;;16.10;99.90;;;;;;5013996;28;20056;-61
2022/08/08 02:41:54;;;;;;;7.70;3.80;;;16.10;99.90;;;;;;5014010;28;20045;-60
2022/08/08 02:44:47;;;;;;;6.03;3.75;;;16.10;99.90;;;;;;5014197;28;20046;-60
2022/08/08 02:47:32;;;;;;;8.48;4.40;;;16.10;99.90;;;;;;5013810;28;20058;-60
2022/08/08 02:50:28;;;;;;;8.38;4.07;;;16.20;99.90;;;;;;5012725;28;20049;-60
2022/08/08 02:52:53;;;;;;;6.47;4.10;;;16.20;99.90;;;;;;5013756;28;20049;-60
2022/08/08 02:55:28;;;;;;;6.55;3.92;;;16.20;99.90;;;;;;5012880;28;20046;-61
2022/08/08 02:58:12;;;;;;;10.05;4.28;;;16.20;99.90;;;;;;5013612;28;20615;-61
2022/08/08 03:01:05;;;;;;;7.55;4.10;;;16.20;99.90;;;;;;5013738;28;20373;-60
2022/08/08 03:03:52;;;;;;;9.05;4.15;;;16.20;99.90;;;;;;5013807;28;20136;-61
2022/08/08 03:06:57;;;;;;;7.35;3.72;;;16.30;99.90;;;;;;5013916;28;20049;-61
2022/08/08 03:09:50;;;;;;;6.10;3.78;;;16.30;99.90;;;;;;5013934;28;20080;-61
2022/08/08 03:12:32;;;;;;;7.68;3.78;;;16.30;99.90;;;;;;5013834;28;20057;-61
2022/08/08 03:15:25;;;;;;;10.85;4.35;;;16.30;99.90;;;;;;5013226;28;20084;-61
2022/08/08 03:18:01;;;;;;;10.18;4.10;;;16.40;99.90;;;;;;5013259;28;20046;-60
2022/08/08 03:20:46;;;;;;;9.65;4.55;;;16.30;99.90;;;;;;5029608;28;20056;-61
2022/08/08 03:23:12;;;;;;;8.60;4.80;;;16.30;99.90;;;;;;5012707;28;20053;-60
2022/08/08 03:25:39;;;;;;;7.78;4.28;;;16.40;99.90;;;;;;5013410;28;20042;-60
2022/08/08 03:28:28;;;;;;;8.35;4.18;;;16.40;99.90;;;;;;5012580;28;20050;-60
2022/08/08 03:30:53;;;;;;;6.93;4.00;;;16.40;99.90;;;;;;5012631;28;20478;-62
2022/08/08 03:33:19;;;;;;;8.30;4.05;;;16.30;99.90;;;;;;5013295;28;20104;-60
2022/08/08 03:35:47;;;;;;;8.18;4.20;;;16.30;99.90;;;;;;5012772;28;20049;-61
2022/08/08 03:38:14;;;;;;;9.82;4.32;;;16.30;99.90;;;;;;5011433;28;20064;-61
2022/08/08 03:40:40;;;;;;;7.50;4.22;;;16.30;99.90;;;;;;5012790;28;20615;-61
2022/08/08 03:43:08;;;;;;;8.90;4.18;;;16.30;99.90;;;;;;5012701;28;20088;-61
2022/08/08 03:45:33;;;;;;;9.07;4.65;;;16.30;99.90;;;;;;5012859;28;20054;-61
2022/08/08 03:48:04;;;;;;;8.48;4.38;;;16.30;99.90;;;;;;5012715;28;20145;-60
2022/08/08 03:50:31;;;;;;;8.25;4.15;;;16.30;99.90;;;;;;5012775;28;20432;-61
2022/08/08 03:53:12;;;;;;;8.60;4.30;;;16.30;99.90;;;;;;5012622;28;20077;-60
2022/08/08 03:55:43;;;;;;;8.82;4.43;;;16.30;99.90;;;;;;5012814;28;20104;-60
2022/08/08 03:58:15;;;;;;;7.35;4.40;;;16.20;99.90;;;;;;5012344;28;20050;-60
2022/08/08 04:00:47;;;;;;;6.68;4.00;;;16.30;99.90;;;;;;5012428;28;20095;-60
2022/08/08 04:03:13;;;;;;;8.25;3.90;;;16.20;99.90;;;;;;5012316;28;20652;-60
2022/08/08 04:05:39;;;;;;;6.78;4.30;;;16.20;99.90;;;;;;5044269;28;20136;-60
2022/08/08 04:08:06;;;;;;;11.23;5.85;;;16.20;99.90;;;;;;5012038;28;20495;-61
2022/08/08 04:10:33;;;;;;;8.68;4.35;;;16.20;99.90;;;;;;5012454;28;20045;-60
2022/08/08 04:13:01;;;;;;;7.63;4.20;;;16.20;99.90;;;;;;5011507;28;20506;-60
2022/08/08 04:15:27;;;;;;;8.77;4.40;;;16.20;99.90;;;;;;5011279;28;20125;-59
2022/08/08 04:17:53;;;;;;;11.32;4.28;;;16.20;99.90;;;;;;5011711;28;20073;-59
2022/08/08 04:20:18;;;;;;;5.78;4.00;;;16.20;99.90;;;;;;5011844;28;20054;-59
2022/08/08 04:22:44;;;;;;;7.50;4.32;;;16.20;99.90;;;;;;5012327;28;20134;-60
2022/08/08 04:25:10;;;;;;;9.00;4.43;;;16.20;99.90;;;;;;5011580;28;20064;-60
2022/08/08 04:27:36;;;;;;;8.18;4.72;;;16.20;99.90;;;;;;5012107;28;20099;-60
2022/08/08 04:30:05;;;;;;;11.25;4.88;;;16.20;99.90;;;;;;5043487;28;20104;-60
2022/08/08 04:32:31;;;;;;;7.55;4.53;;;16.20;99.90;;;;;;5011559;28;20132;-60
2022/08/08 04:34:56;;;;;;;8.68;4.35;;;16.20;99.90;;;;;;5011938;28;20141;-62
2022/08/08 04:37:22;;;;;;;10.07;4.78;;;16.20;99.90;;;;;;5011658;28;20133;-60
2022/08/08 04:39:49;;;;;;;8.40;4.63;;;16.20;99.90;;;;;;5012072;28;20606;-60
2022/08/08 04:42:14;;;;;;;7.68;4.05;;;16.20;99.90;;;;;;5011304;28;20092;-60
2022/08/08 04:44:40;;;;;;;9.57;4.82;;;16.20;99.90;;;;;;5011991;28;20081;-60
2022/08/08 04:47:06;;;;;;;8.85;4.30;;;16.20;99.90;;;;;;5011148;28;20096;-60
2022/08/08 04:49:32;;;;;;;9.38;4.70;;;16.20;99.90;;;;;;5011532;28;20060;-60
2022/08/08 04:51:58;;;;;;;8.35;4.88;;;16.20;99.90;;;;;;5011822;28;20050;-60
2022/08/08 04:54:24;;;;;;;7.47;4.70;;;16.20;99.90;;;;;;5043187;28;20052;-60
2022/08/08 04:56:51;;;;;;;7.82;4.28;;;16.10;99.90;;;;;;5010779;28;20046;-60
2022/08/08 04:59:16;;;;;;;9.50;5.20;;;16.20;99.90;;;;;;5011287;28;20511;-60
2022/08/08 05:01:42;;;;;;;8.00;5.10;;;16.20;99.90;;;;;;5010427;28;20145;-60
2022/08/08 05:04:08;;;;;;;18.63;4.95;;;16.20;99.90;;;;;;5011358;28;20050;-60
2022/08/08 05:06:33;;;;;;;6.82;4.50;;;16.20;99.90;;;;;;5011287;28;20053;-60
2022/08/08 05:08:59;;;;;;;8.82;5.03;;;16.20;99.90;;;;;;5011803;28;20511;-60
2022/08/08 05:11:25;;;;;;;6.72;5.10;;;16.20;99.90;;;;;;5010030;28;20099;-60
2022/08/08 05:13:51;;;;;;;7.20;4.97;;;16.30;99.90;;;;;;5011473;28;20053;-60
2022/08/08 05:16:17;;;;;;;10.20;5.05;;;16.30;99.90;;;;;;5010943;28;20053;-61
2022/08/08 05:18:42;;;;;;;7.95;5.00;;;16.30;99.90;;;;;;5043429;28;20144;-60
2022/08/08 05:21:08;;;;;;;12.13;4.97;;;16.40;99.90;;;;;;5011178;28;20046;-59
2022/08/08 05:23:34;;;;;;;9.00;4.53;;;16.40;99.90;;;;;;5010450;28;20456;-60
2022/08/08 05:26:01;;;;;;;10.30;4.20;;;16.50;99.90;;;;;;5026420;28;20088;-62
2022/08/08 05:28:27;;;;;;;7.63;4.10;;;16.50;99.90;;;;;;5009815;28;20103;-61
2022/08/08 05:30:53;;;;;;;9.98;4.32;;;16.60;99.90;;;;;;5010492;28;20058;-60
2022/08/08 05:33:19;;;;;;;6.88;4.18;;;16.70;99.90;;;;;;5011153;28;20080;-60
2022/08/08 05:35:45;;;;;;;12.27;4.68;;;16.70;99.90;;;;;;5011360;28;20046;-60
2022/08/08 05:38:16;;;;;;;8.95;4.15;;;16.70;99.90;;;;;;5010916;28;20076;-60
2022/08/08 05:40:52;;;;;;;6.90;3.97;;;16.70;99.90;;;;;;5011234;28;20120;-60
2022/08/08 05:43:29;;;;;;;9.25;4.07;;;16.70;99.90;;;;;;5011110;28;20456;-60
2022/08/08 05:45:58;;;;;;;8.65;3.83;;;16.70;99.90;;;;;;5012892;28;20058;-60
2022/08/08 05:48:24;;;;;;;6.90;4.38;;;16.70;99.90;;;;;;5014830;28;20452;-59
2022/08/08 05:50:50;;;;;;;11.00;4.20;;;16.80;99.90;;;;;;5014818;28;20049;-60
2022/08/08 05:53:17;;;;;;;10.32;4.72;;;16.80;99.90;;;;;;5014478;28;20042;-60
2022/08/08 05:55:44;;;;;;;9.30;4.25;;;16.80;99.90;;;;;;5014778;28;20056;-60
2022/08/08 05:58:13;;;;;;;10.48;3.90;;;16.80;99.90;;;;;;5014538;28;20440;-63
2022/08/08 06:00:42;;;;;;;9.63;4.03;;;16.80;99.90;;;;;;5013552;28;20399;-60
2022/08/08 06:03:14;;;;;;;8.63;4.03;;;16.80;99.90;;;;;;5014615;28;20442;-60
2022/08/08 06:05:49;;;;;;;9.65;4.45;;;16.90;99.90;;;;;;5013575;28;20057;-61
2022/08/08 06:08:21;;;;;;;7.80;3.67;;;16.90;99.90;;;;;;5013154;28;20058;-61
2022/08/08 06:10:48;;;;;;;5.68;3.85;;;16.90;99.90;;;;;;5013460;28;20056;-61
2022/08/08 06:13:15;;;;;;;7.63;3.90;;;16.90;99.90;;;;;;5013061;28;20046;-64
2022/08/08 06:15:45;;;;;;;11.00;4.00;;;16.90;99.90;;;;;;5029959;28;20046;-60
2022/08/08 06:18:13;;;;;;;7.18;3.88;;;17.00;99.90;;;;;;5014235;28;20108;-60
2022/08/08 06:20:39;;;;;;;7.00;3.80;;;17.00;99.90;;;;;;5045835;28;20117;-60
2022/08/08 06:23:05;;;;;;;8.05;3.78;;;17.10;99.90;;;;;;5013102;28;20553;-59
2022/08/08 06:25:35;;;;;;;10.05;3.80;;;17.20;99.90;;;;;;5014014;28;20045;-59
2022/08/08 06:28:06;;;;;;;9.88;3.92;;;17.30;99.90;;;;;;5014302;28;20041;-59
2022/08/08 06:30:33;;;;;;;10.13;4.15;;;17.40;99.90;;;;;;5013932;28;20050;-60
2022/08/08 06:33:00;;;;;;;5.85;3.50;;;17.50;99.90;;;;;;5013144;28;20054;-60
2022/08/08 06:35:30;;;;;;;10.30;3.95;;;17.50;99.90;;;;;;5013760;28;20055;-60
2022/08/08 06:38:03;;;;;;;9.27;4.07;;;17.70;99.90;;;;;;5014005;28;20084;-60
2022/08/08 06:40:30;;;;;;;11.23;4.05;;;17.80;99.90;;;;;;5013750;28;20049;-60
2022/08/08 06:43:04;;;;;;;8.85;4.15;;;17.90;99.90;;;;;;5013154;28;20054;-59
2022/08/08 06:45:36;;;;;;;7.25;3.72;;;18.10;99.90;;;;;;5013689;28;20400;-58
2022/08/08 06:48:03;;;;;;;7.38;3.58;;;18.30;99.90;;;;;;5045810;28;20057;-59
2022/08/08 06:50:31;;;;;;;6.85;3.25;;;18.40;99.90;;;;;;5013668;28;20128;-59
2022/08/08 06:53:01;;;;;;;8.55;3.50;;;18.40;99.90;;;;;;5014049;28;20046;-59
2022/08/08 06:55:29;;;;;;;6.68;3.10;;;18.50;99.90;;;;;;5012891;28;20053;-59
2022/08/08 06:57:55;;;;;;;10.20;3.17;;;18.50;99.90;;;;;;5013892;28;20061;-59
2022/08/08 07:00:20;;;;;;;9.20;3.63;;;18.60;99.90;;;;;;5012271;28;20053;-63
2022/08/08 07:02:52;;;;;;;9.63;3.53;;;18.60;99.90;;;;;;5013072;28;20152;-61
2022/08/08 07:05:22;;;;;;;6.22;3.17;;;18.60;99.90;;;;;;5013434;28;20093;-59
2022/08/08 07:07:51;;;;;;;6.53;3.35;;;18.70;99.90;;;;;;5012513;28;20132;-59
2022/08/08 07:10:19;;;;;;;7.07;3.03;;;18.70;99.90;;;;;;5013401;28;20052;-60
2022/08/08 07:12:53;;;;;;;7.45;2.97;;;18.80;99.90;;;;;;5012283;28;20045;-60
2022/08/08 07:15:30;;;;;;;7.30;3.20;;;18.80;99.90;;;;;;5013331;28;20065;-61
2022/08/08 07:18:01;;;;;;;7.60;2.92;;;19.00;99.90;;;;;;5011839;28;20128;-60
2022/08/08 07:20:30;;;;;;;4.80;2.55;;;19.10;99.90;;;;;;5012748;28;20041;-60
2022/08/08 07:23:25;;;;;;;7.13;3.03;;;19.20;99.90;;;;;;5013011;28;20049;-60
2022/08/08 07:25:52;;;;;;;;;;;19.40;99.90;;;;;;5013242;28;20111;-60
2022/08/08 07:28:24;;;;;;;7.05;2.70;;;19.40;99.90;;;;;;5012547;28;19921;-60
2022/08/08 07:30:50;;;;;;;6.55;2.80;;;19.50;99.90;;;;;;5013175;28;20033;-61
2022/08/08 07:33:23;;;;;;;5.47;2.80;;;20.00;99.90;;;;;;5011545;28;20046;-60
2022/08/08 07:35:49;;;;;;;4.35;2.10;;;21.20;99.90;;;;;;5012364;28;20466;-60
2022/08/08 07:38:17;;;;;;;6.82;2.15;;;22.60;99.90;;;;;;5012304;28;20396;-59
2022/08/08 07:40:44;;;;;;;6.15;2.35;;;23.90;99.90;;;;;;5012366;28;20155;-59
2022/08/08 07:43:11;;;;;;;4.22;1.70;;;;;;;;;;5011544;28;20085;-59
2022/08/08 07:45:37;;;;;;;6.88;2.00;;;24.80;99.90;;;;;;5011067;28;20054;-60
2022/08/08 07:48:04;;;;;;;5.47;1.83;;;26.00;96.80;;;;;;5011232;28;20097;-61
2022/08/08 07:50:32;;;;;;;4.70;1.88;;;26.10;96.70;;;;;;5012245;28;20050;-60
2022/08/08 07:53:30;;;;;;;3.63;1.48;;;26.20;96.30;;;;;;5012533;28;20403;-60
2022/08/08 07:56:00;;;;;;;3.38;1.35;;;26.70;95.70;;;;;;5044245;28;20145;-60
2022/08/08 07:58:31;;;;;;;4.55;1.30;;;27.10;95.70;;;;;;5011152;28;20096;-60
2022/08/08 08:01:06;;;;;;;2.85;1.20;;;27.30;93.50;;;;;;5010975;28;20066;-60
2022/08/08 08:03:31;;;;;;;5.40;1.52;;;27.80;93.10;;;;;;5012164;28;20050;-61
2022/08/08 08:05:58;;;;;;;2.80;1.48;;;28.60;92.40;;;;;;5012477;28;20127;-60
2022/08/08 08:08:36;;;;;;;3.15;1.38;;;29.00;92.10;;;;;;5043474;28;20054;-60
2022/08/08 08:11:02;;;;;;;4.40;1.30;;;29.70;91.20;;;;;;5012617;28;20050;-60
2022/08/08 08:13:35;;;;;;;4.55;1.38;;;30.30;90.40;;;;;;5010559;28;20085;-61
2022/08/08 08:16:05;;;;;;;3.33;1.30;;;30.20;89.60;;;;;;5007508;28;20125;-60
2022/08/08 08:18:40;;;;;;;2.70;1.27;;;29.40;89.90;;;;;;5010494;28;20399;-64
2022/08/08 08:21:07;;;;;;;3.83;1.10;;;28.30;90.60;;;;;;5010086;28;20068;-59
2022/08/08 08:23:33;;;;;;;4.72;1.30;;;27.40;91.10;;;;;;5008465;28;20115;-59
2022/08/08 08:25:58;;;;;;;4.03;2.08;;;26.50;92.00;;;;;;5009113;28;20049;-59
2022/08/08 08:28:24;;;;;;;3.92;1.40;;;25.90;92.70;;;;;;5009037;28;20064;-60
2022/08/08 08:30:54;;;;;;;3.17;1.58;;;25.40;93.10;;;;;;5008789;28;20046;-59
2022/08/08 08:33:20;;;;;;;5.63;1.70;;;24.90;93.50;;;;;;5008546;28;20042;-59
2022/08/08 08:35:47;;;;;;;4.85;1.73;;;24.50;94.00;;;;;;5010026;28;20050;-59
2022/08/08 08:38:12;;;;;;;4.60;1.42;;;24.20;94.60;;;;;;5043156;28;20045;-59
2022/08/08 08:40:38;;;;;;;4.57;1.40;;;23.80;94.50;;;;;;5007795;28;20054;-59
2022/08/08 08:43:04;;;;;;;4.32;1.50;;;23.50;94.90;;;;;;5009314;28;20052;-59
2022/08/08 08:45:30;;;;;;;8.85;2.13;;;23.30;95.40;;;;;;5043477;28;20418;-59
2022/08/08 08:47:56;;;;;;;2.95;1.20;;;23.00;95.70;;;;;;5011295;28;20088;-60
2022/08/08 08:50:25;;;;;;;4.18;1.50;;;22.90;96.20;;;;;;5041718;28;20077;-60
2022/08/08 08:52:53;;;;;;;4.30;1.50;;;22.70;96.60;;;;;;5011198;28;20053;-60
2022/08/08 08:55:19;;;;;;;4.22;1.50;;;22.70;96.60;;;;;;5011512;28;20127;-60
2022/08/08 08:57:49;;;;;;;3.15;1.35;;;22.60;96.70;;;;;;5010895;28;20045;-61
2022/08/08 09:00:15;;;;;;;3.22;1.30;;;22.40;97.00;;;;;;5011643;28;20365;-61
2022/08/08 09:02:42;;;;;;;5.65;1.60;;;22.30;97.20;;;;;;5011049;28;20042;-60
2022/08/08 09:05:11;;;;;;;4.82;1.63;;;22.30;97.60;;;;;;5008520;28;20089;-60
2022/08/08 09:07:41;;;;;;;3.35;1.17;;;22.30;97.50;;;;;;5011114;28;20069;-63
2022/08/08 09:10:07;;;;;;;5.03;1.40;;;22.40;97.60;;;;;;5011342;28;20053;-59
2022/08/08 09:12:34;;;;;;;4.70;1.60;;;22.50;97.20;;;;;;5011268;28;20046;-60
2022/08/08 09:15:00;;;;;;;4.43;1.77;;;22.40;97.10;;;;;;5010930;28;20158;-60
2022/08/08 09:17:26;;;;;;;6.28;1.30;;;22.40;97.00;;;;;;5042006;28;20459;-59
2022/08/08 09:19:56;;;;;;;3.72;1.52;;;22.50;97.10;;;;;;5013950;28;20132;-60
2022/08/08 09:22:22;;;;;;;5.47;1.52;;;22.50;97.10;;;;;;5014736;28;20100;-58
2022/08/08 09:24:50;;;;;;;4.45;1.30;;;22.50;96.90;;;;;;5014921;28;20052;-60
2022/08/08 09:27:17;;;;;;;3.33;1.30;;;22.70;96.90;;;;;;5014220;28;20480;-59
2022/08/08 09:30:00;;;;;;;2.22;1.00;;;22.60;97.00;;;;;;5013412;28;20444;-59
2022/08/08 09:32:34;;;;;;;3.88;1.33;;;22.60;97.00;;;;;;5015259;28;20042;-59
2022/08/08 09:35:01;;;;;;;4.05;1.27;;;22.70;97.10;;;;;;4997707;28;20241;-59
2022/08/08 09:37:29;;;;;;;3.72;1.40;;;22.80;97.00;;;;;;5015019;28;20107;-62
2022/08/08 09:40:07;;;;;;;3.20;1.30;;;23.00;96.40;;;;;;5014165;28;20100;-60
2022/08/08 09:42:34;;;;;;;2.97;1.10;;;23.00;96.80;;;;;;5014121;28;20058;-60
2022/08/08 09:45:10;;;;;;;3.28;1.10;;;23.00;96.20;;;;;;5015050;28;20061;-60
2022/08/08 09:47:39;;;;;;;3.13;1.30;;;23.00;96.50;;;;;;5014717;28;20225;-60
2022/08/08 09:50:10;;;;;;;2.03;0.95;;;23.10;96.50;;;;;;5014772;28;20049;-60
2022/08/08 09:52:39;;;;;;;5.60;1.40;;;23.00;96.50;;;;;;5015277;28;20052;-60
2022/08/08 09:55:06;;;;;;;4.07;1.50;;;23.20;96.70;;;;;;5014825;28;20053;-61
2022/08/08 09:57:31;;;;;;;3.00;1.10;;;23.00;96.00;;;;;;5015008;28;20041;-61
2022/08/08 09:59:59;;;;;;;5.38;1.20;;;23.00;96.40;;;;;;5014857;28;20095;-61
2022/08/08 10:02:36;;;;;;;3.35;1.50;;;23.10;95.90;;;;;;5015135;28;20536;-61
2022/08/08 10:05:24;;;;;;;1.60;0.93;;;23.30;96.00;;;;;;5012788;28;20046;-60
2022/08/08 10:07:50;;;;;;;3.47;1.30;;;23.50;95.60;;;;;;5011655;28;20122;-61
2022/08/08 10:10:29;;;;;;;3.63;1.40;;;23.70;95.70;;;;;;5012869;28;20061;-61
2022/08/08 10:12:56;;;;;;;3.72;1.20;;;23.90;95.40;;;;;;5010017;28;20491;-61
2022/08/08 10:15:24;;;;;;;3.17;1.30;;;24.00;95.40;;;;;;5012665;28;20038;-60
2022/08/08 10:17:51;;;;;;;3.97;1.50;;;24.20;95.60;;;;;;5011963;28;20431;-60
2022/08/08 10:20:18;;;;;;;4.93;1.27;;;24.30;94.80;;;;;;5012780;28;20136;-60
2022/08/08 10:23:03;;;;;;;2.50;1.20;;;24.40;94.10;;;;;;5013415;28;20053;-60
2022/08/08 10:25:29;;;;;;;3.97;1.27;;;24.50;94.40;;;;;;5013931;28;20337;-61
2022/08/08 10:27:55;;;;;;;6.32;1.58;;;24.50;94.50;;;;;;5010782;28;20068;-60
2022/08/08 10:30:23;;;;;;;3.95;1.35;;;24.30;94.60;;;;;;5013545;28;20411;-60
2022/08/08 10:32:59;;;;;;;1.40;0.82;;;24.20;94.50;;;;;;5013762;28;20053;-60
2022/08/08 10:35:30;;;;;;;4.25;1.20;;;24.20;94.80;;;;;;5014487;28;20382;-61
2022/08/08 10:38:01;;;;;;;3.45;1.50;;;24.20;94.00;;;;;;5012596;28;20064;-61
2022/08/08 10:40:29;;;;;;;4.45;1.25;;;24.20;94.50;;;;;;5013618;28;20046;-60
2022/08/08 10:43:05;;;;;;;3.00;1.10;;;24.10;94.40;;;;;;5011806;28;20068;-60
2022/08/08 10:45:49;;;;;;;2.72;0.95;;;24.10;94.60;;;;;;5012329;28;20143;-60
2022/08/08 10:48:14;;;;;;;3.22;1.20;;;24.10;94.60;;;;;;5014273;28;20076;-60
2022/08/08 10:50:40;;;;;;;3.67;1.40;;;24.20;94.70;;;;;;5013116;28;20054;-60
2022/08/08 10:53:08;;;;;;;4.35;1.38;;;24.20;94.90;;;;;;5014028;28;20104;-61
2022/08/08 10:55:39;;;;;;;3.42;1.20;;;24.10;94.30;;;;;;5014051;28;20038;-61
2022/08/08 10:58:09;;;;;;;3.00;0.93;;;23.80;93.70;;;;;;5012577;28;20462;-60
2022/08/08 11:00:41;;;;;;;2.70;1.10;;;23.80;94.10;;;;;;5012543;28;20281;-61
2022/08/08 11:03:16;;;;;;;2.55;1.20;;;23.90;94.80;;;;;;5013599;28;20143;-61
2022/08/08 11:05:50;;;;;;;4.00;1.30;;;23.90;95.00;;;;;;5012588;28;20060;-60
2022/08/08 11:08:20;;;;;;;;;;;23.80;95.10;;;;;;5014415;28;20100;-61
2022/08/08 11:10:46;;;;;;;3.85;1.48;;;23.80;95.20;;;;;;5013711;28;20306;-61
2022/08/08 11:13:19;;;;;;;3.10;1.40;;;23.80;95.30;;;;;;5013633;28;20124;-61
2022/08/08 11:15:45;;;;;;;3.75;1.48;;;23.80;95.30;;;;;;5012392;28;20089;-62
2022/08/08 11:18:12;;;;;;;3.00;1.30;;;23.70;95.60;;;;;;5013469;28;20058;-62
2022/08/08 11:20:39;;;;;;;3.78;1.40;;;23.60;95.40;;;;;;5013526;28;20045;-62
2022/08/08 11:23:07;;;;;;;6.68;1.50;;;23.60;95.40;;;;;;5012922;28;20052;-61
2022/08/08 11:25:33;;;;;;;4.28;1.23;;;23.50;95.40;;;;;;5012662;28;20049;-61
2022/08/08 11:28:02;;;;;;;3.50;1.33;;;23.50;95.50;;;;;;5013321;28;20046;-62
2022/08/08 11:30:31;;;;;;;3.45;1.40;;;23.50;95.50;;;;;;5013286;28;20053;-61
2022/08/08 11:33:02;;;;;;;3.20;1.30;;;23.60;95.80;;;;;;5013129;28;20137;-61
2022/08/08 11:35:28;;;;;;;3.13;1.33;;;23.70;95.30;;;;;;5011692;28;20490;-60
2022/08/08 11:37:54;;;;;;;2.92;1.20;;;23.80;95.30;;;;;;5011187;28;20137;-60
2022/08/08 11:40:21;;;;;;;3.10;0.90;;;23.70;94.80;;;;;;5013185;28;20046;-59
2022/08/08 11:42:48;;;;;;;3.42;1.20;;;23.80;94.70;;;;;;5012827;28;20099;-61
2022/08/08 11:45:15;;;;;;;5.57;1.38;;;23.80;94.70;;;;;;5011620;28;20140;-61
2022/08/08 11:47:41;;;;;;;5.40;1.20;;;24.00;94.60;;;;;;5012067;28;20544;-60
2022/08/08 11:50:10;;;;;;;3.17;1.27;;;24.10;94.40;;;;;;5011930;28;20045;-61
2022/08/08 11:52:37;;;;;;;7.10;1.83;;;24.00;93.70;;;;;;5012197;28;20049;-61
2022/08/08 11:55:26;;;;;;;4.18;1.30;;;23.90;93.80;;;;;;5012428;28;20049;-63
2022/08/08 11:58:09;;;;;;;4.05;1.50;;;23.90;94.20;;;;;;5012947;28;20134;-60
2022/08/08 12:00:45;;;;;;;5.50;1.20;;;23.90;94.40;;;;;;5012783;28;20125;-60
2022/08/08 12:03:19;;;;;;;3.92;1.27;;;23.90;94.60;;;;;;5012347;28;20050;-61
2022/08/08 12:05:48;;;;;;;3.55;1.48;;;23.90;94.60;;;;;;5011404;28;20052;-63
2022/08/08 12:08:15;;;;;;;3.00;1.23;;;23.90;94.60;;;;;;5010582;28;20049;-61
2022/08/08 12:10:49;;;;;;;2.17;1.05;;;23.80;94.20;;;;;;5044643;28;20046;-61
2022/08/08 12:13:22;;;;;;;1.90;0.80;;;23.80;94.10;;;;;;5011024;28;20157;-61
2022/08/08 12:15:48;;;;;;;2.10;1.30;;;23.80;94.00;;;;;;5044391;28;20061;-61
2022/08/08 12:18:18;;;;;;;1.83;0.93;;;23.90;94.10;;;;;;5012240;28;20391;-61
2022/08/08 12:20:44;;;;;;;3.63;1.20;;;24.00;94.10;;;;;;5012608;28;20046;-61
2022/08/08 12:23:10;;;;;;;4.55;1.23;;;24.20;94.30;;;;;;5010780;28;20111;-62
2022/08/08 12:25:36;;;;;;;5.38;1.10;;;24.30;94.00;;;;;;5012620;28;20054;-61
2022/08/08 12:28:12;;;;;;;2.25;1.10;;;24.40;93.30;;;;;;5012380;28;20054;-60
2022/08/08 12:30:39;;;;;;;2.88;1.10;;;24.40;93.20;;;;;;5011186;28;20064;-60
2022/08/08 12:33:16;;;;;;;2.67;1.10;;;24.50;92.90;;;;;;5011090;28;20399;-60
2022/08/08 12:35:42;;;;;;;2.65;1.00;;;24.60;93.00;;;;;;5012462;28;20056;-60
2022/08/08 12:38:08;;;;;;;4.00;1.05;;;24.50;93.10;;;;;;5011887;28;20085;-60
2022/08/08 12:40:39;;;;;;;3.95;1.10;;;24.40;93.10;;;;;;5027420;28;20045;-61
2022/08/08 12:43:06;;;;;;;1.60;0.98;;;24.50;93.60;;;;;;5012059;28;20383;-61
2022/08/08 12:45:34;;;;;;;2.72;1.23;;;24.60;93.20;;;;;;5012141;28;20045;-60
2022/08/08 12:48:05;;;;;;;1.48;1.00;;;24.60;93.40;;;;;;5012239;28;20061;-60
2022/08/08 12:50:41;;;;;;;4.88;1.40;;;24.60;93.60;;;;;;5012182;28;20132;-61
2022/08/08 12:53:26;;;;;;;3.80;1.30;;;24.50;93.30;;;;;;5011069;28;20038;-60
2022/08/08 12:56:02;;;;;;;2.47;1.10;;;24.30;93.40;;;;;;5010940;28;20053;-60
2022/08/08 12:58:42;;;;;;;3.17;1.13;;;24.20;93.40;;;;;;5011989;28;20218;-61
2022/08/08 13:01:10;;;;;;;2.45;1.27;;;24.00;93.60;;;;;;5011497;28;20107;-61
2022/08/08 13:03:42;;;;;;;5.55;1.10;;;24.00;93.80;;;;;;5011656;28;20046;-61
2022/08/08 13:06:12;;;;;;;1.98;0.90;;;24.00;94.00;;;;;;5011285;28;20504;-62
2022/08/08 13:08:42;;;;;;;2.78;1.15;;;23.90;94.00;;;;;;5011542;28;20133;-60
2022/08/08 13:11:33;;;;;;;1.90;1.23;;;23.90;94.10;;;;;;5026286;28;20100;-62
2022/08/08 13:14:11;;;;;;;3.20;1.00;;;23.80;94.00;;;;;;5011600;28;20050;-61
2022/08/08 13:16:38;;;;;;;4.80;1.25;;;23.80;94.40;;;;;;5010181;28;20538;-61
2022/08/08 13:19:06;;;;;;;2.88;1.00;;;24.00;95.20;;;;;;5010486;28;20124;-61